Akron, OH (44301)

7:35 PM EST on December 18, 2014 (GMT -0500)
Pro-Tech Systems Group | Change Station
CLOSE
Current Station
Personal Weather Station
Location: Akron, OH
Elevation: 1004 ft
Nearby Weather Stations

Elev 1004 ft 41.03 °N, 81.52 °W | Updated 1 minute ago

Overcast
Overcast
28.9 °F
Feels Like 29 °F
N
2.0
Wind Variable Wind from SSE
Gusts 5.0 mph

Today
High -- | Low -- °F
--% Chance of Precip.
Yesterday
High -- | Low -- °F
Precip. -- in
7:45 AM 4:59 PM
Waning Crescent, 11% visible
Pressure 30.19 in
Visibility 9.0 miles
Clouds Overcast 1400 ft
Windchill 29 °F
Dew Point 26 °F
Humidity 88%
Rainfall 0.00 in
Snow Depth Not available.
UV 0 out of 12
Pollen .10 out of 12
Air Quality Not available.
Flu Activity Not available.
METAR KAKR 182354Z AUTO 25006KT 9SM OVC014 M02/M04 A3016 RMK AO2 SLP224 T10171044 11011 21017 53001 $

More Conditions Fewer Conditions

Pressure 30.19 in
Visibility 9.0 miles
Clouds Overcast 1400 ft
Windchill 29 °F
Dew Point 26 °F
Humidity 88%
Rainfall 0.00 in
Snow Depth Not available.
UV 0 out of 12
Pollen .10 out of 12
Air Quality Not available.
Flu Activity Not available.
METAR KAKR 182354Z AUTO 25006KT 9SM OVC014 M02/M04 A3016 RMK AO2 SLP224 T10171044 11011 21017 53001 $

More Conditions Fewer Conditions

10-Day Weather Forecast

Almanac

Astronomy

Dec. 18, 2014 Rise Set
Actual Time
Civil Twilight
Nautical Twilight
Astronomical Twilight
Moon
Length of Visible Light
Length of Day
Tomorrow will be .
, % of the Moon is Illuminated

Today's Extremes

State Highs State Lows

Community

WunderPhotos

Upload Photos

1,779,016 photos uploaded!

WunderBlogs® & News

Nearby

Air Quality

  Air Quality AQ Index Pollutant
Not available.

Snow Depth

Station Depth Elevation

Earthquake Activity

City Distance Mag. Time & Date
Minimum magnitude displayed is 2.5.

Coastal Water Temperatures

Place Temperature

Nearby Weather Stations